createdAt,value
2018-07-25T00:00:02.192Z,27.17
2018-07-25T00:02:30.492Z,26.71
2018-07-25T00:04:58.613Z,27.02
2018-07-25T00:07:26.810Z,27.20
2018-07-25T00:09:57.141Z,27.02
2018-07-25T00:12:25.783Z,27.37
2018-07-25T00:14:53.982Z,27.40
2018-07-25T00:21:41.986Z,27.57
2018-07-25T00:24:10.109Z,27.41
2018-07-25T00:26:38.257Z,27.03
2018-07-25T00:29:06.358Z,26.99
2018-07-25T00:31:34.448Z,26.65
2018-07-25T00:34:02.802Z,26.13
2018-07-25T00:36:31.080Z,26.08
2018-07-25T00:38:59.306Z,26.52
2018-07-25T00:41:28.016Z,26.39
2018-07-25T00:43:56.167Z,26.47
2018-07-25T00:46:24.406Z,26.39
2018-07-25T00:48:53.395Z,25.98
2018-07-25T00:51:21.555Z,26.21
2018-07-25T00:53:49.656Z,26.29
2018-07-25T00:56:17.777Z,26.45
2018-07-25T00:58:45.849Z,26.30
2018-07-25T01:01:13.990Z,26.32
2018-07-25T01:03:42.105Z,26.16
2018-07-25T01:06:10.219Z,26.23
2018-07-25T01:08:38.517Z,26.29
2018-07-25T01:11:06.609Z,26.34
2018-07-25T01:13:34.723Z,26.23
2018-07-25T01:16:02.829Z,26.35
2018-07-25T01:18:30.975Z,26.08
2018-07-25T01:20:59.082Z,26.30
2018-07-25T01:23:27.223Z,26.35
2018-07-25T01:25:55.324Z,26.32
2018-07-25T01:28:23.580Z,26.30
2018-07-25T01:30:52.438Z,26.19
2018-07-25T01:33:20.613Z,25.59
2018-07-25T01:35:48.731Z,26.13
2018-07-25T01:38:16.924Z,26.01
2018-07-25T01:40:45.615Z,25.85
2018-07-25T01:43:13.972Z,25.87
2018-07-25T01:45:42.098Z,25.50
2018-07-25T01:48:10.300Z,25.72
2018-07-25T01:50:38.570Z,25.98
2018-07-25T01:53:06.770Z,26.27
2018-07-25T01:55:34.971Z,26.25
2018-07-25T01:58:03.676Z,26.00
2018-07-25T02:00:31.825Z,25.95
2018-07-25T02:02:59.946Z,25.68
2018-07-25T02:05:28.099Z,26.02
2018-07-25T02:07:56.239Z,25.78
2018-07-25T02:10:24.795Z,25.82
2018-07-25T02:12:53.979Z,26.07
2018-07-25T02:15:22.614Z,26.21
2018-07-25T02:17:50.828Z,26.27
2018-07-25T02:20:18.993Z,26.09
2018-07-25T02:22:47.124Z,25.69
2018-07-25T02:25:15.282Z,25.78
2018-07-25T02:27:43.528Z,25.45
2018-07-25T02:30:11.664Z,25.71
2018-07-25T02:32:39.804Z,25.76
2018-07-25T02:35:07.908Z,26.03
2018-07-25T02:37:36.032Z,25.99
2018-07-25T02:40:04.172Z,25.46
2018-07-25T02:42:32.628Z,25.59
2018-07-25T02:45:00.721Z,25.53
2018-07-25T02:47:28.828Z,25.88
2018-07-25T02:49:56.983Z,25.38
2018-07-25T02:52:25.311Z,25.51
2018-07-25T02:54:53.892Z,25.45
2018-07-25T02:57:21.988Z,25.49
2018-07-25T02:59:50.071Z,25.58
2018-07-25T03:02:18.315Z,25.28
2018-07-25T03:04:46.528Z,25.29
2018-07-25T03:07:14.616Z,25.30
2018-07-25T03:09:42.724Z,25.01
2018-07-25T03:12:10.880Z,25.44
2018-07-25T03:14:38.992Z,25.66
2018-07-25T03:17:07.386Z,25.42
2018-07-25T03:19:35.458Z,25.56
2018-07-25T03:22:03.717Z,25.61
2018-07-25T03:24:31.831Z,25.63
2018-07-25T03:26:59.931Z,25.76
2018-07-25T03:29:28.212Z,25.84
2018-07-25T03:31:56.367Z,25.55
2018-07-25T03:34:24.591Z,25.69
2018-07-25T03:36:52.691Z,25.42
2018-07-25T03:39:20.930Z,25.64
2018-07-25T03:41:49.038Z,25.18
2018-07-25T03:44:17.196Z,25.31
2018-07-25T03:46:45.651Z,25.39
2018-07-25T03:49:13.873Z,25.45
2018-07-25T03:51:42.086Z,25.36
2018-07-25T03:54:10.389Z,25.59
2018-07-25T03:56:38.546Z,25.37
2018-07-25T03:59:06.720Z,25.41
2018-07-25T04:01:34.849Z,25.54
2018-07-25T04:04:03.074Z,25.61
2018-07-25T04:06:31.228Z,25.20
2018-07-25T04:08:59.367Z,25.38
2018-07-25T04:11:27.887Z,25.26
2018-07-25T04:13:56.031Z,25.19
2018-07-25T04:16:24.466Z,25.08
2018-07-25T04:18:52.570Z,24.93
2018-07-25T04:21:20.641Z,24.83
2018-07-25T04:23:48.752Z,25.11
2018-07-25T04:26:16.838Z,24.93
2018-07-25T04:28:45.338Z,24.64
2018-07-25T04:31:13.481Z,24.87
2018-07-25T04:33:41.623Z,24.93
2018-07-25T04:36:10.038Z,24.93
2018-07-25T04:38:38.259Z,24.87
2018-07-25T04:41:06.441Z,24.76
2018-07-25T04:43:34.559Z,24.79
2018-07-25T04:46:02.843Z,24.69
2018-07-25T04:48:30.960Z,24.84
2018-07-25T04:50:59.048Z,24.51
2018-07-25T04:53:27.273Z,24.92
2018-07-25T04:55:55.430Z,24.47
2018-07-25T04:58:24.796Z,24.51
2018-07-25T05:00:52.912Z,24.30
2018-07-25T05:03:21.049Z,24.67
2018-07-25T05:05:49.175Z,24.96
2018-07-25T05:08:17.682Z,25.02
2018-07-25T05:10:45.766Z,25.06
2018-07-25T05:13:13.898Z,25.04
2018-07-25T05:15:42.018Z,24.97
2018-07-25T05:18:10.142Z,25.12
2018-07-25T05:20:38.550Z,25.30
2018-07-25T05:23:06.732Z,25.26
2018-07-25T05:25:34.875Z,25.10
2018-07-25T05:28:03.054Z,24.46
2018-07-25T05:30:31.177Z,24.50
2018-07-25T05:32:59.547Z,25.01
2018-07-25T05:35:34.053Z,24.72
2018-07-25T05:38:02.155Z,24.65
2018-07-25T05:40:30.265Z,24.64
2018-07-25T05:42:58.333Z,25.23
2018-07-25T05:45:26.438Z,25.08
2018-07-25T05:47:54.728Z,24.77
2018-07-25T05:50:22.909Z,25.05
2018-07-25T05:52:51.004Z,25.04
2018-07-25T05:55:19.073Z,24.82
2018-07-25T05:57:47.145Z,24.57
2018-07-25T06:00:15.213Z,24.86
2018-07-25T06:02:43.388Z,25.14
2018-07-25T06:05:11.447Z,25.18
2018-07-25T06:07:39.565Z,25.24
2018-07-25T06:10:07.738Z,25.20
2018-07-25T06:12:35.892Z,25.28
2018-07-25T06:15:04.350Z,25.19
2018-07-25T06:17:32.616Z,25.61
2018-07-25T06:20:01.818Z,25.53
2018-07-25T06:22:30.024Z,26.02
2018-07-25T06:24:58.930Z,25.80
2018-07-25T06:27:27.374Z,26.18
2018-07-25T06:29:55.603Z,26.33
2018-07-25T06:32:23.865Z,26.21
2018-07-25T06:34:52.049Z,25.88
2018-07-25T06:37:20.156Z,26.03
2018-07-25T06:39:48.523Z,26.31
2018-07-25T06:42:16.875Z,26.34
2018-07-25T06:44:44.999Z,26.58
2018-07-25T06:47:13.317Z,26.42
2018-07-25T06:49:41.461Z,26.74
2018-07-25T06:52:09.740Z,26.86
2018-07-25T06:54:37.899Z,26.56
2018-07-25T06:57:06.065Z,26.68
2018-07-25T06:59:35.189Z,26.78
2018-07-25T07:02:03.419Z,26.91
2018-07-25T07:04:31.535Z,26.77
2018-07-25T07:07:00.269Z,26.58
2018-07-25T07:09:28.544Z,26.66
2018-07-25T07:11:56.719Z,26.86
2018-07-25T07:14:25.490Z,27.00
2018-07-25T07:16:53.617Z,27.15
2018-07-25T07:19:21.796Z,27.28
2018-07-25T07:21:50.160Z,27.33
2018-07-25T07:24:18.322Z,27.21
2018-07-25T07:26:46.733Z,27.27
2018-07-25T07:29:14.891Z,27.33
2018-07-25T07:31:43.094Z,27.35
2018-07-25T07:34:11.357Z,27.44
2018-07-25T07:36:39.512Z,27.45
2018-07-25T07:39:10.075Z,27.50
2018-07-25T07:41:38.274Z,27.72
2018-07-25T07:44:06.572Z,27.83
2018-07-25T07:46:34.702Z,27.83
2018-07-25T07:49:03.201Z,27.75
2018-07-25T07:51:31.792Z,27.87
2018-07-25T07:54:00.118Z,27.96
2018-07-25T07:56:28.517Z,27.89
2018-07-25T07:58:56.990Z,28.04
2018-07-25T08:01:25.382Z,28.13
2018-07-25T08:03:53.569Z,28.15
2018-07-25T08:06:22.054Z,28.33
2018-07-25T08:08:50.827Z,28.47
2018-07-25T08:11:21.332Z,28.47
2018-07-25T08:14:06.328Z,28.59
2018-07-25T08:16:41.508Z,28.67
2018-07-25T08:19:10.393Z,28.77
2018-07-25T08:21:38.602Z,28.89
2018-07-25T08:24:07.809Z,28.83
2018-07-25T08:26:36.155Z,28.95
2018-07-25T08:29:04.342Z,29.00
2018-07-25T08:31:32.565Z,28.97
2018-07-25T08:34:00.814Z,28.78
2018-07-25T08:36:29.091Z,28.95
2018-07-25T08:38:57.243Z,28.93
2018-07-25T08:41:30.958Z,29.13
2018-07-25T08:43:59.292Z,29.16
2018-07-25T08:46:27.494Z,29.34
2018-07-25T08:48:55.585Z,29.42
2018-07-25T08:51:23.779Z,29.56
2018-07-25T08:53:52.153Z,29.50
2018-07-25T08:56:20.890Z,29.37
2018-07-25T08:58:49.022Z,29.49
2018-07-25T09:01:17.139Z,29.72
2018-07-25T09:03:45.533Z,29.61
2018-07-25T09:06:13.769Z,29.71
2018-07-25T09:08:41.965Z,29.79
2018-07-25T09:11:10.074Z,29.88
2018-07-25T09:13:38.181Z,29.73
2018-07-25T09:16:06.423Z,29.72
2018-07-25T09:18:34.595Z,29.82
2018-07-25T09:21:02.756Z,29.92
2018-07-25T09:23:30.944Z,30.19
2018-07-25T09:25:59.067Z,30.30
2018-07-25T09:28:27.289Z,30.46
2018-07-25T09:30:55.892Z,30.49
2018-07-25T09:33:24.135Z,30.47
2018-07-25T09:35:52.273Z,30.54
2018-07-25T09:38:20.398Z,30.57
2018-07-25T09:40:48.562Z,30.49
2018-07-25T09:43:16.867Z,30.56
2018-07-25T09:45:45.233Z,30.75
2018-07-25T09:48:13.714Z,30.94
2018-07-25T09:50:41.858Z,31.06
2018-07-25T09:53:10.014Z,31.20
2018-07-25T09:55:38.162Z,31.29
2018-07-25T09:58:06.527Z,31.21
2018-07-25T10:00:39.919Z,31.21
2018-07-25T10:03:08.040Z,31.35
2018-07-25T10:05:36.176Z,31.53
2018-07-25T10:08:04.398Z,31.74
2018-07-25T10:10:32.549Z,31.94
2018-07-25T10:13:00.727Z,31.93
2018-07-25T10:15:28.972Z,31.82
2018-07-25T10:17:57.319Z,31.76
2018-07-25T10:20:26.087Z,31.65
2018-07-25T10:22:54.337Z,31.61
2018-07-25T10:25:22.536Z,31.54
2018-07-25T10:27:50.687Z,31.73
2018-07-25T10:30:18.858Z,31.82
2018-07-25T10:32:47.096Z,32.06
2018-07-25T10:35:15.278Z,32.43
2018-07-25T10:37:43.451Z,32.24
2018-07-25T10:40:11.530Z,32.46
2018-07-25T10:42:39.674Z,32.63
2018-07-25T10:45:09.454Z,32.73
2018-07-25T10:47:37.676Z,33.06
2018-07-25T10:50:06.318Z,33.22
2018-07-25T10:52:34.547Z,33.28
2018-07-25T10:55:02.798Z,33.42
2018-07-25T10:57:31.263Z,32.74
2018-07-25T10:59:59.515Z,32.40
2018-07-25T11:02:27.759Z,32.32
2018-07-25T11:04:56.532Z,32.23
2018-07-25T11:07:24.913Z,32.23
2018-07-25T11:09:53.263Z,32.24
2018-07-25T11:12:21.515Z,32.22
2018-07-25T11:14:49.913Z,32.22
2018-07-25T11:17:18.291Z,32.27
2018-07-25T11:22:52.923Z,33.29
2018-07-25T11:25:21.710Z,33.55
2018-07-25T11:27:50.211Z,33.79
2018-07-25T11:30:18.643Z,34.34
2018-07-25T11:32:46.995Z,34.64
2018-07-25T11:35:16.001Z,34.74
2018-07-25T11:37:44.131Z,34.76
2018-07-25T11:40:12.370Z,34.98
2018-07-25T11:42:40.693Z,35.14
2018-07-25T11:45:09.023Z,35.84
2018-07-25T11:47:37.313Z,36.84
2018-07-25T11:50:06.356Z,37.62
2018-07-25T11:52:34.892Z,36.41
2018-07-25T11:55:03.245Z,36.30
2018-07-25T11:57:31.395Z,37.25
2018-07-25T11:59:59.970Z,38.95
2018-07-25T12:02:28.358Z,39.91
2018-07-25T12:04:56.806Z,40.27
2018-07-25T12:07:25.239Z,39.73
2018-07-25T12:09:53.592Z,40.78
2018-07-25T12:12:21.917Z,39.43
2018-07-25T12:14:50.306Z,40.10
2018-07-25T12:17:18.885Z,41.19
2018-07-25T12:19:47.880Z,41.72
2018-07-25T12:22:16.380Z,42.01
2018-07-25T12:24:44.926Z,41.05
2018-07-25T12:27:13.497Z,41.61
2018-07-25T12:29:41.926Z,42.61
2018-07-25T12:32:10.064Z,42.42
2018-07-25T12:34:38.204Z,42.87
2018-07-25T12:37:06.375Z,43.41
2018-07-25T12:39:36.736Z,43.03
2018-07-25T12:42:14.061Z,43.16
2018-07-25T12:44:50.498Z,43.40
2018-07-25T12:47:18.723Z,44.13
2018-07-25T12:49:46.847Z,45.14
2018-07-25T12:52:15.148Z,43.39
2018-07-25T12:54:45.053Z,43.67
2018-07-25T12:57:13.134Z,44.34
2018-07-25T12:59:41.397Z,45.40
2018-07-25T13:02:09.611Z,44.41
2018-07-25T13:04:37.811Z,44.09
2018-07-25T13:07:06.027Z,44.23
2018-07-25T13:09:35.082Z,45.72
2018-07-25T13:12:03.237Z,45.13
2018-07-25T13:14:31.450Z,45.78
2018-07-25T13:16:59.568Z,45.59
2018-07-25T13:19:30.887Z,46.13
2018-07-25T13:21:58.995Z,45.56
2018-07-25T13:24:27.190Z,46.64
2018-07-25T13:26:55.366Z,46.90
2018-07-25T13:29:23.576Z,46.20
2018-07-25T13:31:51.862Z,46.64
2018-07-25T13:34:20.013Z,46.83
2018-07-25T13:36:48.081Z,44.98
2018-07-25T13:39:16.482Z,42.94
2018-07-25T13:41:44.635Z,44.07
2018-07-25T13:44:12.971Z,42.45
2018-07-25T13:46:41.235Z,41.23
2018-07-25T13:49:09.571Z,41.42
2018-07-25T13:51:37.775Z,40.79
2018-07-25T13:54:06.188Z,40.74
2018-07-25T13:56:34.282Z,43.22
2018-07-25T13:59:02.466Z,42.98
2018-07-25T14:01:30.610Z,44.23
2018-07-25T14:03:59.550Z,42.43
2018-07-25T14:06:27.810Z,41.11
2018-07-25T14:08:56.454Z,40.84
2018-07-25T14:11:25.713Z,40.55
2018-07-25T14:13:54.603Z,39.99
2018-07-25T14:16:23.271Z,39.45
2018-07-25T14:18:52.334Z,39.68
2018-07-25T14:21:20.505Z,39.58
2018-07-25T14:23:49.057Z,39.72
2018-07-25T14:26:21.088Z,39.36
2018-07-25T14:28:49.483Z,39.11
2018-07-25T14:31:17.793Z,38.94
2018-07-25T14:33:46.680Z,39.24
2018-07-25T14:36:16.591Z,38.88
2018-07-25T14:38:45.079Z,41.27
2018-07-25T14:41:13.632Z,42.96
2018-07-25T14:43:41.835Z,42.28
2018-07-25T14:46:10.206Z,41.99
2018-07-25T14:48:38.405Z,43.02
2018-07-25T14:51:06.676Z,43.07
2018-07-25T14:53:34.786Z,43.69
2018-07-25T14:56:02.968Z,43.10
2018-07-25T14:58:31.118Z,44.10
2018-07-25T15:00:59.514Z,44.05
2018-07-25T15:03:28.442Z,43.91
2018-07-25T15:05:57.635Z,44.44
2018-07-25T15:08:25.939Z,44.49
2018-07-25T15:10:54.059Z,42.63
2018-07-25T15:13:22.334Z,43.91
2018-07-25T15:15:50.698Z,43.73
2018-07-25T15:18:18.927Z,44.01
2018-07-25T15:20:47.390Z,43.58
2018-07-25T15:23:26.046Z,44.70
2018-07-25T15:25:54.492Z,44.42
2018-07-25T15:28:23.002Z,44.37
2018-07-25T15:30:51.976Z,43.71
2018-07-25T15:33:20.152Z,45.21
2018-07-25T15:35:48.716Z,44.72
2018-07-25T15:38:17.267Z,44.96
2018-07-25T15:40:45.549Z,45.40
2018-07-25T15:43:13.658Z,45.88
2018-07-25T15:45:41.747Z,45.40
2018-07-25T15:48:09.833Z,45.67
2018-07-25T15:50:38.053Z,45.97
2018-07-25T15:53:06.088Z,46.04
2018-07-25T15:55:34.296Z,45.98
2018-07-25T15:58:02.354Z,45.69
2018-07-25T16:00:30.477Z,46.24
2018-07-25T16:02:58.604Z,46.51
2018-07-25T16:05:29.126Z,45.84
2018-07-25T16:07:57.757Z,45.77
2018-07-25T16:10:26.113Z,45.62
2018-07-25T16:12:54.304Z,45.01
2018-07-25T16:15:22.485Z,44.55
2018-07-25T16:17:50.739Z,43.08
2018-07-25T16:20:18.906Z,41.36
2018-07-25T16:22:47.313Z,41.16
2018-07-25T16:25:15.692Z,40.26
2018-07-25T16:27:44.055Z,38.88
2018-07-25T16:30:13.653Z,39.33
2018-07-25T16:32:42.348Z,39.32
2018-07-25T16:35:10.617Z,39.80
2018-07-25T16:37:39.223Z,38.25
2018-07-25T16:40:07.342Z,37.51
2018-07-25T16:42:35.602Z,37.41
2018-07-25T16:45:03.842Z,37.23
2018-07-25T16:47:31.962Z,37.58
2018-07-25T16:50:00.090Z,37.32
2018-07-25T16:52:28.446Z,37.12
2018-07-25T16:54:56.666Z,37.57
2018-07-25T16:57:24.883Z,37.49
2018-07-25T16:59:53.158Z,37.58
2018-07-25T17:02:21.414Z,37.04
2018-07-25T17:04:49.505Z,36.97
2018-07-25T17:07:17.649Z,36.91
2018-07-25T17:09:45.837Z,36.95
2018-07-25T17:12:13.951Z,36.42
2018-07-25T17:14:42.148Z,36.95
2018-07-25T17:17:10.234Z,37.02
2018-07-25T17:19:39.404Z,36.36
2018-07-25T17:22:07.668Z,36.57
2018-07-25T17:24:35.841Z,36.32
2018-07-25T17:27:04.327Z,36.60
2018-07-25T17:29:32.682Z,36.66
2018-07-25T17:32:01.097Z,36.28
2018-07-25T17:34:29.512Z,35.89
2018-07-25T17:36:57.702Z,35.99
2018-07-25T17:39:27.117Z,35.47
2018-07-25T17:41:54.005Z,35.74
2018-07-25T17:44:22.418Z,35.95
2018-07-25T17:46:50.944Z,35.99
2018-07-25T17:49:19.109Z,35.90
2018-07-25T17:51:47.326Z,35.89
2018-07-25T17:54:15.550Z,35.36
2018-07-25T17:56:43.651Z,35.42
2018-07-25T17:59:11.910Z,35.04
2018-07-25T18:01:42.274Z,34.63
2018-07-25T18:04:10.422Z,34.56
2018-07-25T18:06:38.697Z,33.97
2018-07-25T18:09:08.310Z,34.44
2018-07-25T18:11:38.408Z,34.01
2018-07-25T18:14:11.265Z,33.49
2018-07-25T18:16:39.770Z,33.81
2018-07-25T18:19:10.981Z,33.64
2018-07-25T18:21:39.363Z,33.07
2018-07-25T18:24:07.570Z,33.70
2018-07-25T18:26:35.778Z,33.60
2018-07-25T18:29:04.087Z,34.00
2018-07-25T18:31:32.187Z,34.03
2018-07-25T18:34:00.398Z,33.93
2018-07-25T18:36:28.562Z,33.38
2018-07-25T18:38:56.755Z,33.54
2018-07-25T18:41:25.002Z,33.33
2018-07-25T18:43:53.134Z,33.48
2018-07-25T18:46:21.550Z,33.61
2018-07-25T18:48:50.646Z,33.95
2018-07-25T18:51:19.552Z,33.65
2018-07-25T18:53:47.730Z,32.88
2018-07-25T18:56:15.956Z,32.81
2018-07-25T18:58:44.057Z,33.01
2018-07-25T19:01:12.482Z,33.12
2018-07-25T19:03:40.675Z,33.11
2018-07-25T19:06:08.826Z,33.48
2018-07-25T19:08:37.134Z,33.59
2018-07-25T19:11:05.338Z,33.57
2018-07-25T19:13:33.492Z,33.61
2018-07-25T19:16:01.994Z,33.51
2018-07-25T19:18:30.214Z,33.34
2018-07-25T19:20:58.594Z,33.12
2018-07-25T19:23:26.779Z,33.45
2018-07-25T19:25:55.213Z,33.42
2018-07-25T19:28:23.557Z,33.50
2018-07-25T19:30:51.697Z,33.31
2018-07-25T19:33:19.826Z,33.04
2018-07-25T19:35:48.166Z,32.92
2018-07-25T19:38:16.355Z,32.87
2018-07-25T19:40:44.449Z,32.91
2018-07-25T19:43:12.758Z,33.02
2018-07-25T19:45:41.005Z,32.78
2018-07-25T19:48:09.099Z,32.91
2018-07-25T19:50:37.216Z,33.02
2018-07-25T19:53:05.590Z,32.92
2018-07-25T19:55:33.785Z,32.96
2018-07-25T19:58:01.875Z,33.00
2018-07-25T20:00:29.983Z,32.96
2018-07-25T20:02:59.034Z,32.64
2018-07-25T20:05:27.404Z,32.83
2018-07-25T20:07:55.502Z,32.69
2018-07-25T20:10:23.674Z,32.78
2018-07-25T20:12:51.816Z,32.81
2018-07-25T20:15:25.270Z,32.50
2018-07-25T20:17:53.392Z,32.51
2018-07-25T20:20:21.500Z,32.33
2018-07-25T20:22:49.650Z,32.56
2018-07-25T20:25:18.813Z,32.50
2018-07-25T20:27:46.958Z,32.21
2018-07-25T20:30:15.350Z,32.21
2018-07-25T20:32:43.724Z,32.43
2018-07-25T20:35:12.848Z,32.12
2018-07-25T20:37:41.097Z,32.08
2018-07-25T20:40:09.668Z,31.89
2018-07-25T20:42:38.029Z,32.04
2018-07-25T20:45:06.939Z,32.01
2018-07-25T20:47:35.453Z,31.99
2018-07-25T20:50:03.885Z,31.66
2018-07-25T20:52:33.515Z,31.71
2018-07-25T20:55:02.615Z,31.68
2018-07-25T20:57:30.831Z,31.66
2018-07-25T20:59:59.267Z,31.62
2018-07-25T21:02:27.500Z,31.49
2018-07-25T21:04:55.642Z,31.44
2018-07-25T21:07:23.802Z,31.55
2018-07-25T21:09:52.012Z,31.22
2018-07-25T21:12:20.482Z,31.34
2018-07-25T21:14:48.965Z,31.34
2018-07-25T21:17:17.318Z,31.17
2018-07-25T21:19:46.154Z,31.26
2018-07-25T21:22:14.579Z,31.16
2018-07-25T21:24:42.813Z,31.40
2018-07-25T21:27:11.344Z,31.43
2018-07-25T21:29:39.539Z,31.19
2018-07-25T21:32:07.942Z,31.16
2018-07-25T21:34:36.275Z,31.18
2018-07-25T21:37:04.470Z,31.20
2018-07-25T21:39:32.626Z,30.52
2018-07-25T21:42:00.830Z,30.87
2018-07-25T21:44:29.010Z,30.91
2018-07-25T21:46:57.294Z,31.00
2018-07-25T21:49:25.614Z,30.51
2018-07-25T21:51:53.734Z,30.69
2018-07-25T21:54:22.179Z,30.76
2018-07-25T21:56:50.374Z,30.40
2018-07-25T22:01:59.927Z,30.42
2018-07-25T22:04:28.034Z,30.48
2018-07-25T22:06:56.363Z,30.45
2018-07-25T22:09:24.469Z,30.42
2018-07-25T22:11:52.630Z,30.44
2018-07-25T22:14:20.750Z,30.49
2018-07-25T22:16:49.221Z,30.34
2018-07-25T22:19:17.370Z,30.21
2018-07-25T22:21:45.610Z,30.12
2018-07-25T22:24:14.711Z,30.10
2018-07-25T22:26:42.923Z,29.76
2018-07-25T22:29:11.035Z,30.05
2018-07-25T22:31:39.122Z,30.03
2018-07-25T22:34:07.424Z,29.87
2018-07-25T22:36:36.543Z,29.69
2018-07-25T22:39:07.402Z,29.90
2018-07-25T22:41:35.527Z,29.67
2018-07-25T22:44:04.391Z,29.76
2018-07-25T22:46:32.730Z,29.64
2018-07-25T22:49:01.372Z,29.95
2018-07-25T22:51:29.494Z,29.98
2018-07-25T22:53:57.623Z,29.86
2018-07-25T22:56:25.726Z,29.97
2018-07-25T22:58:53.839Z,30.00
2018-07-25T23:01:21.962Z,29.65
2018-07-25T23:03:50.221Z,29.44
2018-07-25T23:06:18.338Z,29.51
2018-07-25T23:08:47.273Z,29.55
2018-07-25T23:11:15.771Z,29.38
2018-07-25T23:13:45.852Z,29.61
2018-07-25T23:16:15.705Z,29.61
2018-07-25T23:18:44.010Z,29.71
2018-07-25T23:21:12.135Z,29.45
2018-07-25T23:23:40.291Z,29.48
2018-07-25T23:26:08.554Z,29.48
2018-07-25T23:28:36.698Z,29.50
2018-07-25T23:31:04.806Z,29.36
2018-07-25T23:33:32.951Z,29.51
2018-07-25T23:36:01.082Z,29.36
2018-07-25T23:38:29.295Z,29.52
2018-07-25T23:40:57.375Z,29.32
2018-07-25T23:43:25.573Z,29.05
2018-07-25T23:45:53.769Z,29.23
2018-07-25T23:48:21.881Z,29.21
2018-07-25T23:50:49.966Z,29.06
2018-07-25T23:53:18.074Z,29.06
2018-07-25T23:55:46.373Z,29.13
2018-07-25T23:58:15.162Z,29.15
